sensor_id;sensor_type;location;lat;lon;timestamp;P1;durP1;ratioP1;P2;durP2;ratioP2
5163;SDS011;2601;50.224;10.126;2022-11-25T00:01:07;146.63;;;29.67;;
5163;SDS011;2601;50.224;10.126;2022-11-25T00:03:37;165.33;;;28.83;;
5163;SDS011;2601;50.224;10.126;2022-11-25T00:06:22;200.57;;;30.87;;
5163;SDS011;2601;50.224;10.126;2022-11-25T00:08:50;138.70;;;25.80;;
5163;SDS011;2601;50.224;10.126;2022-11-25T00:11:19;307.00;;;32.87;;
5163;SDS011;2601;50.224;10.126;2022-11-25T00:13:45;250.30;;;29.53;;
5163;SDS011;2601;50.224;10.126;2022-11-25T00:16:12;185.17;;;21.93;;
5163;SDS011;2601;50.224;10.126;2022-11-25T00:18:42;197.70;;;23.43;;
5163;SDS011;2601;50.224;10.126;2022-11-25T00:21:10;240.93;;;23.90;;
5163;SDS011;2601;50.224;10.126;2022-11-25T00:23:38;158.63;;;21.40;;
5163;SDS011;2601;50.224;10.126;2022-11-25T00:26:08;212.13;;;26.20;;
5163;SDS011;2601;50.224;10.126;2022-11-25T00:28:36;219.30;;;24.57;;
5163;SDS011;2601;50.224;10.126;2022-11-25T00:31:03;215.73;;;22.80;;
5163;SDS011;2601;50.224;10.126;2022-11-25T00:33:32;216.80;;;24.10;;
5163;SDS011;2601;50.224;10.126;2022-11-25T00:36:01;187.37;;;21.90;;
5163;SDS011;2601;50.224;10.126;2022-11-25T00:38:28;282.40;;;27.00;;
5163;SDS011;2601;50.224;10.126;2022-11-25T00:40:54;284.67;;;24.20;;
5163;SDS011;2601;50.224;10.126;2022-11-25T00:43:39;157.27;;;25.03;;
5163;SDS011;2601;50.224;10.126;2022-11-25T00:46:23;201.30;;;24.50;;
5163;SDS011;2601;50.224;10.126;2022-11-25T00:48:48;77.27;;;16.47;;
5163;SDS011;2601;50.224;10.126;2022-11-25T00:51:14;76.27;;;14.43;;
5163;SDS011;2601;50.224;10.126;2022-11-25T00:53:40;148.60;;;14.73;;
5163;SDS011;2601;50.224;10.126;2022-11-25T00:56:06;88.97;;;13.27;;
5163;SDS011;2601;50.224;10.126;2022-11-25T00:58:38;85.50;;;14.33;;
5163;SDS011;2601;50.224;10.126;2022-11-25T01:01:04;144.60;;;14.33;;
5163;SDS011;2601;50.224;10.126;2022-11-25T01:03:30;73.60;;;12.80;;
5163;SDS011;2601;50.224;10.126;2022-11-25T01:05:59;192.40;;;20.17;;
5163;SDS011;2601;50.224;10.126;2022-11-25T01:08:28;57.37;;;12.07;;
5163;SDS011;2601;50.224;10.126;2022-11-25T01:10:58;87.57;;;13.73;;
5163;SDS011;2601;50.224;10.126;2022-11-25T01:13:24;68.20;;;12.60;;
5163;SDS011;2601;50.224;10.126;2022-11-25T01:15:50;119.67;;;16.13;;
5163;SDS011;2601;50.224;10.126;2022-11-25T01:18:16;86.77;;;14.40;;
5163;SDS011;2601;50.224;10.126;2022-11-25T01:20:41;198.07;;;19.20;;
5163;SDS011;2601;50.224;10.126;2022-11-25T01:23:07;81.27;;;13.03;;
5163;SDS011;2601;50.224;10.126;2022-11-25T01:25:36;59.03;;;13.37;;
5163;SDS011;2601;50.224;10.126;2022-11-25T01:28:02;181.23;;;17.03;;
5163;SDS011;2601;50.224;10.126;2022-11-25T01:30:28;36.67;;;11.80;;
5163;SDS011;2601;50.224;10.126;2022-11-25T01:32:54;42.67;;;12.33;;
5163;SDS011;2601;50.224;10.126;2022-11-25T01:35:20;206.13;;;18.23;;
5163;SDS011;2601;50.224;10.126;2022-11-25T01:37:46;54.00;;;10.20;;
5163;SDS011;2601;50.224;10.126;2022-11-25T01:40:12;38.73;;;11.03;;
5163;SDS011;2601;50.224;10.126;2022-11-25T01:42:42;53.63;;;12.00;;
5163;SDS011;2601;50.224;10.126;2022-11-25T01:47:49;172.57;;;13.80;;
5163;SDS011;2601;50.224;10.126;2022-11-25T01:50:19;87.73;;;13.00;;
5163;SDS011;2601;50.224;10.126;2022-11-25T01:52:48;74.50;;;13.53;;
5163;SDS011;2601;50.224;10.126;2022-11-25T01:55:19;44.67;;;13.10;;
5163;SDS011;2601;50.224;10.126;2022-11-25T01:57:52;88.00;;;15.33;;
5163;SDS011;2601;50.224;10.126;2022-11-25T02:00:24;55.53;;;14.10;;
5163;SDS011;2601;50.224;10.126;2022-11-25T02:02:51;68.80;;;14.20;;
5163;SDS011;2601;50.224;10.126;2022-11-25T02:05:22;45.87;;;12.20;;
5163;SDS011;2601;50.224;10.126;2022-11-25T02:07:53;38.17;;;12.40;;
5163;SDS011;2601;50.224;10.126;2022-11-25T02:10:24;163.33;;;17.40;;
5163;SDS011;2601;50.224;10.126;2022-11-25T02:12:53;31.07;;;12.83;;
5163;SDS011;2601;50.224;10.126;2022-11-25T02:15:19;80.40;;;15.20;;
5163;SDS011;2601;50.224;10.126;2022-11-25T02:17:46;44.70;;;16.10;;
5163;SDS011;2601;50.224;10.126;2022-11-25T02:20:16;41.87;;;13.70;;
5163;SDS011;2601;50.224;10.126;2022-11-25T02:25:32;64.30;;;12.13;;
5163;SDS011;2601;50.224;10.126;2022-11-25T02:28:02;33.40;;;12.90;;
5163;SDS011;2601;50.224;10.126;2022-11-25T02:30:33;31.60;;;14.20;;
5163;SDS011;2601;50.224;10.126;2022-11-25T02:32:59;65.60;;;13.03;;
5163;SDS011;2601;50.224;10.126;2022-11-25T02:37:55;81.03;;;14.10;;
5163;SDS011;2601;50.224;10.126;2022-11-25T02:40:27;28.53;;;9.93;;
5163;SDS011;2601;50.224;10.126;2022-11-25T02:42:55;53.83;;;10.47;;
5163;SDS011;2601;50.224;10.126;2022-11-25T02:45:26;39.70;;;9.03;;
5163;SDS011;2601;50.224;10.126;2022-11-25T02:47:59;56.80;;;9.60;;
5163;SDS011;2601;50.224;10.126;2022-11-25T02:50:25;83.47;;;9.80;;
5163;SDS011;2601;50.224;10.126;2022-11-25T02:52:51;52.37;;;9.30;;
5163;SDS011;2601;50.224;10.126;2022-11-25T02:55:16;106.93;;;10.80;;
5163;SDS011;2601;50.224;10.126;2022-11-25T02:57:42;198.93;;;15.20;;
5163;SDS011;2601;50.224;10.126;2022-11-25T03:00:08;165.50;;;12.27;;
5163;SDS011;2601;50.224;10.126;2022-11-25T03:02:34;70.07;;;10.43;;
5163;SDS011;2601;50.224;10.126;2022-11-25T03:04:59;79.20;;;12.70;;
5163;SDS011;2601;50.224;10.126;2022-11-25T03:07:25;94.93;;;12.40;;
5163;SDS011;2601;50.224;10.126;2022-11-25T03:09:51;43.00;;;10.20;;
5163;SDS011;2601;50.224;10.126;2022-11-25T03:12:17;107.30;;;20.30;;
5163;SDS011;2601;50.224;10.126;2022-11-25T03:14:45;103.67;;;14.17;;
5163;SDS011;2601;50.224;10.126;2022-11-25T03:17:12;34.20;;;12.10;;
5163;SDS011;2601;50.224;10.126;2022-11-25T03:19:41;63.37;;;10.47;;
5163;SDS011;2601;50.224;10.126;2022-11-25T03:22:07;32.53;;;11.77;;
5163;SDS011;2601;50.224;10.126;2022-11-25T03:24:32;144.27;;;17.10;;
5163;SDS011;2601;50.224;10.126;2022-11-25T03:26:58;139.40;;;13.60;;
5163;SDS011;2601;50.224;10.126;2022-11-25T03:29:24;38.43;;;10.30;;
5163;SDS011;2601;50.224;10.126;2022-11-25T03:31:50;38.60;;;9.33;;
5163;SDS011;2601;50.224;10.126;2022-11-25T03:34:15;28.10;;;8.90;;
5163;SDS011;2601;50.224;10.126;2022-11-25T03:36:41;30.17;;;9.50;;
5163;SDS011;2601;50.224;10.126;2022-11-25T03:39:07;49.20;;;10.67;;
5163;SDS011;2601;50.224;10.126;2022-11-25T03:41:32;18.97;;;7.13;;
5163;SDS011;2601;50.224;10.126;2022-11-25T03:43:58;14.90;;;6.90;;
5163;SDS011;2601;50.224;10.126;2022-11-25T03:46:24;10.73;;;6.80;;
5163;SDS011;2601;50.224;10.126;2022-11-25T03:48:49;20.83;;;7.70;;
5163;SDS011;2601;50.224;10.126;2022-11-25T03:51:15;20.93;;;7.63;;
5163;SDS011;2601;50.224;10.126;2022-11-25T03:53:41;13.67;;;7.70;;
5163;SDS011;2601;50.224;10.126;2022-11-25T03:56:06;18.03;;;7.40;;
5163;SDS011;2601;50.224;10.126;2022-11-25T03:58:32;25.30;;;7.90;;
5163;SDS011;2601;50.224;10.126;2022-11-25T04:00:59;25.90;;;9.20;;
5163;SDS011;2601;50.224;10.126;2022-11-25T04:03:25;21.87;;;8.20;;
5163;SDS011;2601;50.224;10.126;2022-11-25T04:05:51;12.87;;;6.47;;
5163;SDS011;2601;50.224;10.126;2022-11-25T04:08:16;13.30;;;7.53;;
5163;SDS011;2601;50.224;10.126;2022-11-25T04:10:42;12.73;;;7.43;;
5163;SDS011;2601;50.224;10.126;2022-11-25T04:13:08;10.30;;;5.67;;
5163;SDS011;2601;50.224;10.126;2022-11-25T04:15:33;8.70;;;5.80;;
5163;SDS011;2601;50.224;10.126;2022-11-25T04:17:59;10.47;;;6.03;;
5163;SDS011;2601;50.224;10.126;2022-11-25T04:20:25;13.20;;;6.00;;
5163;SDS011;2601;50.224;10.126;2022-11-25T04:22:51;10.53;;;6.07;;
5163;SDS011;2601;50.224;10.126;2022-11-25T04:25:17;12.10;;;6.80;;
5163;SDS011;2601;50.224;10.126;2022-11-25T04:27:43;12.20;;;6.40;;
5163;SDS011;2601;50.224;10.126;2022-11-25T04:30:09;10.97;;;5.83;;
5163;SDS011;2601;50.224;10.126;2022-11-25T04:32:36;16.17;;;7.50;;
5163;SDS011;2601;50.224;10.126;2022-11-25T04:35:02;28.43;;;7.67;;
5163;SDS011;2601;50.224;10.126;2022-11-25T04:37:28;4.30;;;3.90;;
5163;SDS011;2601;50.224;10.126;2022-11-25T04:39:54;11.27;;;6.30;;
5163;SDS011;2601;50.224;10.126;2022-11-25T04:42:20;8.40;;;3.90;;
5163;SDS011;2601;50.224;10.126;2022-11-25T04:45:03;8.23;;;4.37;;
5163;SDS011;2601;50.224;10.126;2022-11-25T04:47:35;6.10;;;4.20;;
5163;SDS011;2601;50.224;10.126;2022-11-25T04:50:01;11.03;;;5.93;;
5163;SDS011;2601;50.224;10.126;2022-11-25T04:52:28;13.03;;;6.23;;
5163;SDS011;2601;50.224;10.126;2022-11-25T04:54:54;12.90;;;6.40;;
5163;SDS011;2601;50.224;10.126;2022-11-25T04:57:19;10.53;;;6.00;;
5163;SDS011;2601;50.224;10.126;2022-11-25T04:59:45;14.13;;;6.00;;
5163;SDS011;2601;50.224;10.126;2022-11-25T05:02:12;13.00;;;5.53;;
5163;SDS011;2601;50.224;10.126;2022-11-25T05:04:46;12.07;;;6.00;;
5163;SDS011;2601;50.224;10.126;2022-11-25T05:07:13;9.53;;;6.10;;
5163;SDS011;2601;50.224;10.126;2022-11-25T05:09:40;6.50;;;4.53;;
5163;SDS011;2601;50.224;10.126;2022-11-25T05:12:06;6.67;;;4.83;;
5163;SDS011;2601;50.224;10.126;2022-11-25T05:14:34;6.77;;;4.53;;
5163;SDS011;2601;50.224;10.126;2022-11-25T05:17:01;6.67;;;4.57;;
5163;SDS011;2601;50.224;10.126;2022-11-25T05:19:28;9.10;;;4.93;;
5163;SDS011;2601;50.224;10.126;2022-11-25T05:21:54;4.37;;;3.97;;
5163;SDS011;2601;50.224;10.126;2022-11-25T05:24:20;7.10;;;5.10;;
5163;SDS011;2601;50.224;10.126;2022-11-25T05:26:47;7.60;;;5.47;;
5163;SDS011;2601;50.224;10.126;2022-11-25T05:29:13;9.70;;;4.80;;
5163;SDS011;2601;50.224;10.126;2022-11-25T05:31:39;5.97;;;4.53;;
5163;SDS011;2601;50.224;10.126;2022-11-25T05:34:05;11.47;;;4.97;;
5163;SDS011;2601;50.224;10.126;2022-11-25T05:36:30;7.87;;;5.00;;
5163;SDS011;2601;50.224;10.126;2022-11-25T05:38:56;7.70;;;5.70;;
5163;SDS011;2601;50.224;10.126;2022-11-25T05:41:23;7.70;;;5.23;;
5163;SDS011;2601;50.224;10.126;2022-11-25T05:43:49;8.30;;;5.50;;
5163;SDS011;2601;50.224;10.126;2022-11-25T05:46:15;8.20;;;5.53;;
5163;SDS011;2601;50.224;10.126;2022-11-25T05:48:43;8.33;;;4.80;;
5163;SDS011;2601;50.224;10.126;2022-11-25T05:51:08;14.13;;;5.80;;
5163;SDS011;2601;50.224;10.126;2022-11-25T05:53:34;7.80;;;5.20;;
5163;SDS011;2601;50.224;10.126;2022-11-25T05:56:01;17.77;;;5.87;;
5163;SDS011;2601;50.224;10.126;2022-11-25T05:58:29;9.23;;;5.03;;
5163;SDS011;2601;50.224;10.126;2022-11-25T06:00:56;12.87;;;6.00;;
5163;SDS011;2601;50.224;10.126;2022-11-25T06:03:26;9.57;;;5.40;;
5163;SDS011;2601;50.224;10.126;2022-11-25T06:05:56;6.90;;;5.13;;
5163;SDS011;2601;50.224;10.126;2022-11-25T06:08:23;9.50;;;4.80;;
5163;SDS011;2601;50.224;10.126;2022-11-25T06:10:50;9.67;;;4.97;;
5163;SDS011;2601;50.224;10.126;2022-11-25T06:13:16;9.40;;;4.60;;
5163;SDS011;2601;50.224;10.126;2022-11-25T06:15:42;11.23;;;5.10;;
5163;SDS011;2601;50.224;10.126;2022-11-25T06:18:09;9.40;;;5.27;;
5163;SDS011;2601;50.224;10.126;2022-11-25T06:20:35;19.83;;;6.47;;
5163;SDS011;2601;50.224;10.126;2022-11-25T06:23:01;14.47;;;7.67;;
5163;SDS011;2601;50.224;10.126;2022-11-25T06:25:27;17.83;;;9.57;;
5163;SDS011;2601;50.224;10.126;2022-11-25T06:27:53;8.80;;;5.00;;
5163;SDS011;2601;50.224;10.126;2022-11-25T06:30:19;8.00;;;4.80;;
5163;SDS011;2601;50.224;10.126;2022-11-25T06:32:45;4.43;;;4.03;;
5163;SDS011;2601;50.224;10.126;2022-11-25T06:35:11;8.87;;;4.80;;
5163;SDS011;2601;50.224;10.126;2022-11-25T06:37:37;4.73;;;4.33;;
5163;SDS011;2601;50.224;10.126;2022-11-25T06:40:03;10.20;;;4.20;;
5163;SDS011;2601;50.224;10.126;2022-11-25T06:42:29;5.30;;;3.60;;
5163;SDS011;2601;50.224;10.126;2022-11-25T06:44:55;7.60;;;5.70;;
5163;SDS011;2601;50.224;10.126;2022-11-25T06:47:21;15.70;;;7.17;;
5163;SDS011;2601;50.224;10.126;2022-11-25T06:49:47;35.63;;;16.03;;
5163;SDS011;2601;50.224;10.126;2022-11-25T06:52:14;34.30;;;14.13;;
5163;SDS011;2601;50.224;10.126;2022-11-25T06:54:40;41.83;;;17.07;;
5163;SDS011;2601;50.224;10.126;2022-11-25T06:57:07;38.53;;;17.47;;
5163;SDS011;2601;50.224;10.126;2022-11-25T06:59:33;32.57;;;15.90;;
5163;SDS011;2601;50.224;10.126;2022-11-25T07:01:59;21.17;;;11.47;;
5163;SDS011;2601;50.224;10.126;2022-11-25T07:04:25;7.37;;;5.37;;
5163;SDS011;2601;50.224;10.126;2022-11-25T07:06:50;9.00;;;6.47;;
5163;SDS011;2601;50.224;10.126;2022-11-25T07:09:16;8.27;;;6.67;;
5163;SDS011;2601;50.224;10.126;2022-11-25T07:11:43;7.73;;;5.03;;
5163;SDS011;2601;50.224;10.126;2022-11-25T07:14:13;5.23;;;4.70;;
5163;SDS011;2601;50.224;10.126;2022-11-25T07:16:41;9.37;;;4.70;;
5163;SDS011;2601;50.224;10.126;2022-11-25T07:19:10;8.30;;;5.00;;
5163;SDS011;2601;50.224;10.126;2022-11-25T07:21:37;7.43;;;4.60;;
5163;SDS011;2601;50.224;10.126;2022-11-25T07:24:04;4.83;;;4.30;;
5163;SDS011;2601;50.224;10.126;2022-11-25T07:26:32;9.60;;;6.30;;
5163;SDS011;2601;50.224;10.126;2022-11-25T07:29:01;10.67;;;6.80;;
5163;SDS011;2601;50.224;10.126;2022-11-25T07:31:32;9.63;;;5.50;;
5163;SDS011;2601;50.224;10.126;2022-11-25T07:34:00;5.53;;;4.97;;
5163;SDS011;2601;50.224;10.126;2022-11-25T07:36:35;5.83;;;4.27;;
5163;SDS011;2601;50.224;10.126;2022-11-25T07:39:02;7.37;;;4.40;;
5163;SDS011;2601;50.224;10.126;2022-11-25T07:41:33;5.43;;;3.50;;
5163;SDS011;2601;50.224;10.126;2022-11-25T07:44:00;4.80;;;3.43;;
5163;SDS011;2601;50.224;10.126;2022-11-25T07:46:35;4.40;;;4.00;;
5163;SDS011;2601;50.224;10.126;2022-11-25T07:49:03;5.73;;;3.67;;
5163;SDS011;2601;50.224;10.126;2022-11-25T07:51:32;6.13;;;3.80;;
5163;SDS011;2601;50.224;10.126;2022-11-25T07:54:00;4.30;;;3.80;;
5163;SDS011;2601;50.224;10.126;2022-11-25T07:56:28;4.50;;;3.80;;
5163;SDS011;2601;50.224;10.126;2022-11-25T07:58:54;6.20;;;4.07;;
5163;SDS011;2601;50.224;10.126;2022-11-25T08:01:21;4.20;;;3.90;;
5163;SDS011;2601;50.224;10.126;2022-11-25T08:03:47;4.07;;;3.60;;
5163;SDS011;2601;50.224;10.126;2022-11-25T08:06:17;7.70;;;3.93;;
5163;SDS011;2601;50.224;10.126;2022-11-25T08:08:44;4.87;;;4.37;;
5163;SDS011;2601;50.224;10.126;2022-11-25T08:11:17;6.00;;;4.70;;
5163;SDS011;2601;50.224;10.126;2022-11-25T08:13:45;12.03;;;6.70;;
5163;SDS011;2601;50.224;10.126;2022-11-25T08:16:11;8.50;;;6.10;;
5163;SDS011;2601;50.224;10.126;2022-11-25T08:18:38;6.50;;;5.63;;
5163;SDS011;2601;50.224;10.126;2022-11-25T08:21:05;16.43;;;6.53;;
5163;SDS011;2601;50.224;10.126;2022-11-25T08:23:37;4.90;;;4.43;;
5163;SDS011;2601;50.224;10.126;2022-11-25T08:26:04;8.43;;;5.40;;
5163;SDS011;2601;50.224;10.126;2022-11-25T08:28:39;5.47;;;4.97;;
5163;SDS011;2601;50.224;10.126;2022-11-25T08:31:28;9.93;;;6.27;;
5163;SDS011;2601;50.224;10.126;2022-11-25T08:33:56;6.87;;;5.10;;
5163;SDS011;2601;50.224;10.126;2022-11-25T08:36:23;7.77;;;5.23;;
5163;SDS011;2601;50.224;10.126;2022-11-25T08:38:50;6.30;;;4.00;;
5163;SDS011;2601;50.224;10.126;2022-11-25T08:41:21;5.83;;;4.50;;
5163;SDS011;2601;50.224;10.126;2022-11-25T08:43:47;7.50;;;5.03;;
5163;SDS011;2601;50.224;10.126;2022-11-25T08:46:14;5.90;;;4.00;;
5163;SDS011;2601;50.224;10.126;2022-11-25T08:48:43;8.47;;;5.43;;
5163;SDS011;2601;50.224;10.126;2022-11-25T08:51:10;9.53;;;5.50;;
5163;SDS011;2601;50.224;10.126;2022-11-25T08:53:38;11.30;;;6.70;;
5163;SDS011;2601;50.224;10.126;2022-11-25T08:56:05;33.67;;;17.30;;
5163;SDS011;2601;50.224;10.126;2022-11-25T08:58:31;24.17;;;12.60;;
5163;SDS011;2601;50.224;10.126;2022-11-25T09:00:58;8.30;;;5.47;;
5163;SDS011;2601;50.224;10.126;2022-11-25T09:03:24;10.43;;;5.37;;
5163;SDS011;2601;50.224;10.126;2022-11-25T09:05:50;4.87;;;4.33;;
5163;SDS011;2601;50.224;10.126;2022-11-25T09:08:18;8.00;;;4.53;;
5163;SDS011;2601;50.224;10.126;2022-11-25T09:10:45;6.37;;;4.80;;
5163;SDS011;2601;50.224;10.126;2022-11-25T09:13:10;5.10;;;4.60;;
5163;SDS011;2601;50.224;10.126;2022-11-25T09:15:37;7.30;;;5.13;;
5163;SDS011;2601;50.224;10.126;2022-11-25T09:18:07;8.93;;;5.33;;
5163;SDS011;2601;50.224;10.126;2022-11-25T09:20:35;7.03;;;5.40;;
5163;SDS011;2601;50.224;10.126;2022-11-25T09:23:03;7.90;;;6.40;;
5163;SDS011;2601;50.224;10.126;2022-11-25T09:25:29;6.77;;;5.70;;
5163;SDS011;2601;50.224;10.126;2022-11-25T09:27:55;5.90;;;4.70;;
5163;SDS011;2601;50.224;10.126;2022-11-25T09:30:22;5.10;;;4.70;;
5163;SDS011;2601;50.224;10.126;2022-11-25T09:32:49;6.37;;;5.10;;
5163;SDS011;2601;50.224;10.126;2022-11-25T09:35:16;9.53;;;5.77;;
5163;SDS011;2601;50.224;10.126;2022-11-25T09:37:42;8.33;;;5.50;;
5163;SDS011;2601;50.224;10.126;2022-11-25T09:41:12;5.40;;;4.77;;
5163;SDS011;2601;50.224;10.126;2022-11-25T09:54:20;8.47;;;5.97;;
5163;SDS011;2601;50.224;10.126;2022-11-25T09:56:52;13.00;;;7.70;;
5163;SDS011;2601;50.224;10.126;2022-11-25T10:02:00;15.83;;;10.17;;
5163;SDS011;2601;50.224;10.126;2022-11-25T10:04:33;27.33;;;13.47;;
5163;SDS011;2601;50.224;10.126;2022-11-25T10:07:10;14.93;;;9.90;;
5163;SDS011;2601;50.224;10.126;2022-11-25T10:09:42;12.50;;;8.70;;
5163;SDS011;2601;50.224;10.126;2022-11-25T10:14:47;9.63;;;7.60;;
5163;SDS011;2601;50.224;10.126;2022-11-25T10:17:32;9.73;;;6.57;;
5163;SDS011;2601;50.224;10.126;2022-11-25T10:22:54;13.27;;;7.70;;
5163;SDS011;2601;50.224;10.126;2022-11-25T10:25:30;13.60;;;8.37;;
5163;SDS011;2601;50.224;10.126;2022-11-25T10:30:34;5.53;;;4.83;;
5163;SDS011;2601;50.224;10.126;2022-11-25T10:35:48;12.47;;;9.20;;
5163;SDS011;2601;50.224;10.126;2022-11-25T10:41:16;12.10;;;7.57;;
5163;SDS011;2601;50.224;10.126;2022-11-25T10:43:45;12.90;;;8.37;;
5163;SDS011;2601;50.224;10.126;2022-11-25T10:46:18;15.90;;;8.87;;
5163;SDS011;2601;50.224;10.126;2022-11-25T10:51:36;14.10;;;10.07;;
5163;SDS011;2601;50.224;10.126;2022-11-25T10:59:20;8.43;;;7.53;;
5163;SDS011;2601;50.224;10.126;2022-11-25T11:01:49;9.83;;;7.70;;
5163;SDS011;2601;50.224;10.126;2022-11-25T11:04:16;9.47;;;7.67;;
5163;SDS011;2601;50.224;10.126;2022-11-25T11:06:47;21.40;;;7.50;;
5163;SDS011;2601;50.224;10.126;2022-11-25T11:12:25;12.47;;;7.67;;
5163;SDS011;2601;50.224;10.126;2022-11-25T11:14:53;13.73;;;9.67;;
5163;SDS011;2601;50.224;10.126;2022-11-25T11:17:52;19.97;;;11.40;;
5163;SDS011;2601;50.224;10.126;2022-11-25T11:23:08;18.80;;;10.47;;
5163;SDS011;2601;50.224;10.126;2022-11-25T11:25:38;15.00;;;9.37;;
5163;SDS011;2601;50.224;10.126;2022-11-25T11:33:35;15.10;;;9.83;;
5163;SDS011;2601;50.224;10.126;2022-11-25T11:41:55;14.23;;;8.67;;
5163;SDS011;2601;50.224;10.126;2022-11-25T11:44:28;21.43;;;16.33;;
5163;SDS011;2601;50.224;10.126;2022-11-25T11:47:06;11.87;;;7.20;;
5163;SDS011;2601;50.224;10.126;2022-11-25T11:57:39;9.53;;;7.10;;
5163;SDS011;2601;50.224;10.126;2022-11-25T12:00:08;11.50;;;7.40;;
5163;SDS011;2601;50.224;10.126;2022-11-25T12:05:21;11.20;;;8.43;;
5163;SDS011;2601;50.224;10.126;2022-11-25T12:12:50;12.77;;;7.73;;
5163;SDS011;2601;50.224;10.126;2022-11-25T12:18:30;10.03;;;7.63;;
5163;SDS011;2601;50.224;10.126;2022-11-25T12:21:04;12.00;;;8.30;;
5163;SDS011;2601;50.224;10.126;2022-11-25T12:23:38;9.10;;;6.80;;
5163;SDS011;2601;50.224;10.126;2022-11-25T12:29:14;10.30;;;9.20;;
5163;SDS011;2601;50.224;10.126;2022-11-25T12:34:55;10.97;;;8.10;;
5163;SDS011;2601;50.224;10.126;2022-11-25T12:37:42;10.90;;;8.00;;
5163;SDS011;2601;50.224;10.126;2022-11-25T12:43:04;12.57;;;9.73;;
5163;SDS011;2601;50.224;10.126;2022-11-25T12:45:33;14.40;;;10.87;;
5163;SDS011;2601;50.224;10.126;2022-11-25T12:47:59;19.50;;;11.37;;
5163;SDS011;2601;50.224;10.126;2022-11-25T12:53:49;21.37;;;12.93;;
5163;SDS011;2601;50.224;10.126;2022-11-25T12:56:25;19.20;;;11.60;;
5163;SDS011;2601;50.224;10.126;2022-11-25T12:59:29;21.27;;;13.07;;
5163;SDS011;2601;50.224;10.126;2022-11-25T13:13:22;14.10;;;11.47;;
5163;SDS011;2601;50.224;10.126;2022-11-25T13:16:06;26.33;;;13.10;;
5163;SDS011;2601;50.224;10.126;2022-11-25T13:18:36;14.90;;;10.50;;
5163;SDS011;2601;50.224;10.126;2022-11-25T13:21:08;15.33;;;10.23;;
5163;SDS011;2601;50.224;10.126;2022-11-25T13:28:53;22.60;;;13.90;;
5163;SDS011;2601;50.224;10.126;2022-11-25T13:32:03;19.70;;;12.10;;
5163;SDS011;2601;50.224;10.126;2022-11-25T13:36:53;16.13;;;12.40;;
5163;SDS011;2601;50.224;10.126;2022-11-25T13:44:32;21.23;;;12.83;;
5163;SDS011;2601;50.224;10.126;2022-11-25T13:50:00;18.50;;;13.90;;
5163;SDS011;2601;50.224;10.126;2022-11-25T13:57:44;19.33;;;11.43;;
5163;SDS011;2601;50.224;10.126;2022-11-25T14:02:44;14.33;;;10.13;;
5163;SDS011;2601;50.224;10.126;2022-11-25T14:19:15;47.07;;;22.10;;
5163;SDS011;2601;50.224;10.126;2022-11-25T14:27:36;95.13;;;42.83;;
5163;SDS011;2601;50.224;10.126;2022-11-25T14:30:08;34.60;;;19.23;;
5163;SDS011;2601;50.224;10.126;2022-11-25T14:32:46;26.00;;;15.13;;
5163;SDS011;2601;50.224;10.126;2022-11-25T14:35:21;21.20;;;14.57;;
5163;SDS011;2601;50.224;10.126;2022-11-25T14:38:44;19.30;;;14.47;;
5163;SDS011;2601;50.224;10.126;2022-11-25T14:40:56;35.63;;;19.07;;
5163;SDS011;2601;50.224;10.126;2022-11-25T14:43:25;22.57;;;15.20;;
5163;SDS011;2601;50.224;10.126;2022-11-25T14:46:13;27.67;;;15.90;;
5163;SDS011;2601;50.224;10.126;2022-11-25T14:48:53;18.57;;;13.10;;
5163;SDS011;2601;50.224;10.126;2022-11-25T14:51:24;32.60;;;15.07;;
5163;SDS011;2601;50.224;10.126;2022-11-25T14:53:52;22.00;;;13.40;;
5163;SDS011;2601;50.224;10.126;2022-11-25T14:56:24;27.73;;;14.70;;
5163;SDS011;2601;50.224;10.126;2022-11-25T14:58:52;31.03;;;19.43;;
5163;SDS011;2601;50.224;10.126;2022-11-25T15:01:21;32.00;;;19.57;;
5163;SDS011;2601;50.224;10.126;2022-11-25T15:03:49;24.93;;;16.10;;
5163;SDS011;2601;50.224;10.126;2022-11-25T15:06:16;24.43;;;15.80;;
5163;SDS011;2601;50.224;10.126;2022-11-25T15:08:53;28.07;;;17.50;;
5163;SDS011;2601;50.224;10.126;2022-11-25T15:11:22;28.70;;;18.53;;
5163;SDS011;2601;50.224;10.126;2022-11-25T15:13:59;28.20;;;18.93;;
5163;SDS011;2601;50.224;10.126;2022-11-25T15:16:31;30.90;;;19.67;;
5163;SDS011;2601;50.224;10.126;2022-11-25T15:19:00;28.50;;;16.87;;
5163;SDS011;2601;50.224;10.126;2022-11-25T15:21:33;28.33;;;14.40;;
5163;SDS011;2601;50.224;10.126;2022-11-25T15:24:02;37.63;;;16.80;;
5163;SDS011;2601;50.224;10.126;2022-11-25T15:26:30;28.03;;;17.57;;
5163;SDS011;2601;50.224;10.126;2022-11-25T15:29:20;25.20;;;17.40;;
5163;SDS011;2601;50.224;10.126;2022-11-25T15:31:45;37.80;;;21.07;;
5163;SDS011;2601;50.224;10.126;2022-11-25T15:34:13;37.73;;;20.20;;
5163;SDS011;2601;50.224;10.126;2022-11-25T15:36:43;39.63;;;22.93;;
5163;SDS011;2601;50.224;10.126;2022-11-25T15:39:14;40.10;;;23.73;;
5163;SDS011;2601;50.224;10.126;2022-11-25T15:41:47;38.30;;;22.60;;
5163;SDS011;2601;50.224;10.126;2022-11-25T15:44:25;44.10;;;23.63;;
5163;SDS011;2601;50.224;10.126;2022-11-25T15:52:49;57.73;;;26.67;;
5163;SDS011;2601;50.224;10.126;2022-11-25T15:57:52;58.67;;;27.00;;
5163;SDS011;2601;50.224;10.126;2022-11-25T16:00:19;40.67;;;24.70;;
5163;SDS011;2601;50.224;10.126;2022-11-25T16:02:48;44.07;;;21.70;;
5163;SDS011;2601;50.224;10.126;2022-11-25T16:05:21;50.37;;;27.90;;
5163;SDS011;2601;50.224;10.126;2022-11-25T16:08:00;46.37;;;25.50;;
5163;SDS011;2601;50.224;10.126;2022-11-25T16:21:19;32.43;;;18.63;;
5163;SDS011;2601;50.224;10.126;2022-11-25T16:26:34;32.27;;;20.27;;
5163;SDS011;2601;50.224;10.126;2022-11-25T16:29:01;43.53;;;26.20;;
5163;SDS011;2601;50.224;10.126;2022-11-25T16:31:42;35.00;;;20.13;;
5163;SDS011;2601;50.224;10.126;2022-11-25T16:34:13;44.03;;;23.90;;
5163;SDS011;2601;50.224;10.126;2022-11-25T16:36:40;43.03;;;21.40;;
5163;SDS011;2601;50.224;10.126;2022-11-25T16:39:06;52.07;;;27.67;;
5163;SDS011;2601;50.224;10.126;2022-11-25T16:41:32;42.07;;;22.37;;
5163;SDS011;2601;50.224;10.126;2022-11-25T16:43:59;57.97;;;28.10;;
5163;SDS011;2601;50.224;10.126;2022-11-25T16:46:25;57.30;;;31.67;;
5163;SDS011;2601;50.224;10.126;2022-11-25T16:48:51;61.47;;;28.57;;
5163;SDS011;2601;50.224;10.126;2022-11-25T16:51:18;53.37;;;28.23;;
5163;SDS011;2601;50.224;10.126;2022-11-25T16:53:45;48.93;;;25.23;;
5163;SDS011;2601;50.224;10.126;2022-11-25T16:56:15;50.83;;;22.33;;
5163;SDS011;2601;50.224;10.126;2022-11-25T16:58:49;44.13;;;26.27;;
5163;SDS011;2601;50.224;10.126;2022-11-25T17:01:15;38.53;;;19.80;;
5163;SDS011;2601;50.224;10.126;2022-11-25T17:03:50;45.30;;;20.17;;
5163;SDS011;2601;50.224;10.126;2022-11-25T17:06:20;42.97;;;20.87;;
5163;SDS011;2601;50.224;10.126;2022-11-25T17:08:48;36.27;;;19.70;;
5163;SDS011;2601;50.224;10.126;2022-11-25T17:11:37;41.10;;;21.77;;
5163;SDS011;2601;50.224;10.126;2022-11-25T17:14:03;33.10;;;16.90;;
5163;SDS011;2601;50.224;10.126;2022-11-25T17:16:34;32.20;;;17.03;;
5163;SDS011;2601;50.224;10.126;2022-11-25T17:19:00;30.37;;;17.17;;
5163;SDS011;2601;50.224;10.126;2022-11-25T17:21:26;28.00;;;18.30;;
5163;SDS011;2601;50.224;10.126;2022-11-25T17:24:00;32.00;;;14.60;;
5163;SDS011;2601;50.224;10.126;2022-11-25T17:26:34;22.53;;;14.50;;
5163;SDS011;2601;50.224;10.126;2022-11-25T17:29:02;37.90;;;18.30;;
5163;SDS011;2601;50.224;10.126;2022-11-25T17:31:31;49.57;;;26.50;;
5163;SDS011;2601;50.224;10.126;2022-11-25T17:33:57;34.53;;;19.53;;
5163;SDS011;2601;50.224;10.126;2022-11-25T17:36:24;43.57;;;18.93;;
5163;SDS011;2601;50.224;10.126;2022-11-25T17:38:50;31.03;;;17.10;;
5163;SDS011;2601;50.224;10.126;2022-11-25T17:41:19;37.80;;;20.07;;
5163;SDS011;2601;50.224;10.126;2022-11-25T17:43:49;42.53;;;24.37;;